Latest Weather Observations for Kingscote

IDS60801

Issued at 9:35 pm CDT Monday 20 October 2014 (issued every 30 minutes, with the page automatically refreshed every 10 minutes)

About weather observations | Map of weather stations | Latest weather observations for SA | Other Formats
Station Details ID: 022841 Name: KINGSCOTE AERO Lat: -35.71 Lon: 137.52 Height: 6.23 m
Data from the previous 72 hours. | See also: Recent months at Kingscote
Date/Time
CDT
Temp
°C
App
Temp
°C
Dew
Point
Rel
Hum
%
Delta-T
°C
Wind Press
QNH
hPa
Press
MSL
hPa
Rain
since 9 am
mm
Dir
 
Spd
km/h
Gust
km/h
Spd
kts
Gust
kts
20/09:30pm 12.1 10.8 9.8 86 1.2 S 7 9 4 5 1022.4 1022.4 0.0
20/09:00pm 13.7 13.2 10.7 82 1.6 S 4 11 2 6 1022.4 1022.4 0.0
20/08:30pm 14.4 12.3 11.2 81 1.7 SSE 13 17 7 9 1022.0 1022.0 0.0
20/08:00pm 15.3 12.9 11.5 78 2.0 SSE 15 19 8 10 1022.0 1022.0 0.0
20/07:30pm 16.4 14.1 11.6 73 2.6 SSE 15 17 8 9 1021.9 1021.9 0.0
20/07:00pm 17.8 15.1 11.8 68 3.3 SSE 17 20 9 11 1021.7 1021.7 0.0
20/06:30pm 18.8 15.8 12.1 65 3.7 SSE 19 20 10 11 1021.5 1021.5 0.0
20/06:00pm 19.9 17.3 11.9 60 4.4 SSE 17 24 9 13 1021.4 1021.4 0.0
20/05:30pm 21.1 18.2 12.3 57 4.9 SSE 19 24 10 13 1021.4 1021.4 0.0
20/05:00pm 21.8 18.7 12.1 54 5.5 SE 20 26 11 14 1021.5 1021.5 0.0
20/04:30pm 22.1 19.0 12.1 53 5.6 SE 20 26 11 14 1021.7 1021.7 0.0
20/04:00pm 22.1 19.1 12.4 54 5.5 SE 20 26 11 14 1022.1 1022.1 0.0
20/03:30pm 21.2 17.6 11.8 55 5.2 SSE 22 30 12 16 1022.4 1022.4 0.0
20/03:00pm 21.7 17.9 12.5 56 5.2 SSE 24 32 13 17 1022.8 1022.8 0.0
20/02:30pm 21.2 18.1 12.3 57 5.0 SE 20 28 11 15 1023.2 1023.2 0.0
20/02:00pm 19.9 16.7 11.9 60 4.4 SE 20 26 11 14 1023.7 1023.7 0.0
20/01:30pm 20.4 17.9 12.4 60 4.5 ENE 17 24 9 13 1024.0 1024.0 0.0
20/01:00pm 19.7 16.3 11.2 58 4.7 ENE 20 24 11 13 1024.3 1024.3 0.0
20/12:30pm 19.6 15.9 11.4 59 4.5 ENE 22 28 12 15 1024.6 1024.6 0.0
20/12:00pm 19.3 15.7 11.8 62 4.1 E 22 28 12 15 1024.9 1024.9 0.0
20/11:30am 18.6 14.4 11.2 62 4.0 E 24 32 13 17 1025.2 1025.2 0.0
20/11:00am 18.6 14.4 11.2 62 4.0 E 24 32 13 17 1025.7 1025.7 0.0
20/10:30am 18.1 13.9 11.0 63 3.8 E 24 32 13 17 1026.0 1026.0 0.0
20/10:00am 17.3 12.3 11.1 67 3.3 E 28 35 15 19 1026.2 1026.2 0.0
20/09:30am 16.7 11.0 11.0 69 3.0 E 32 35 17 19 1026.1 1026.1 0.0
20/09:00am 15.2 10.1 10.6 74 2.4 E 28 35 15 19 1026.2 1026.2 0.0
20/08:30am 15.3 10.7 10.9 75 2.3 E 26 33 14 18 1026.4 1026.4 0.0
20/08:00am 14.1 9.8 10.7 80 1.8 ESE 24 32 13 17 1026.0 1026.0 0.0
20/07:30am 13.2 9.1 10.0 81 1.6 ESE 22 30 12 16 1025.8 1025.8 0.0
20/07:00am 12.4 8.8 10.0 85 1.2 ESE 19 28 10 15 1025.8 1025.8 0.0
20/06:30am 12.4 8.7 10.0 85 1.2 ESE 20 30 11 16 1025.4 1025.4 0.0
20/06:00am 12.5 8.0 9.9 84 1.3 ESE 24 32 13 17 1025.0 1025.0 0.0
20/05:30am 12.7 8.9 9.9 83 1.4 ESE 20 30 11 16 1024.9 1024.9 0.0
20/05:00am 13.1 8.6 10.1 82 1.5 ESE 24 33 13 18 1024.9 1024.9 0.0
20/04:30am 13.3 7.7 10.1 81 1.6 ESE 30 39 16 21 1024.9 1024.9 0.0
20/04:00am 13.5 8.0 10.5 82 1.6 ESE 30 41 16 22 1024.8 1024.8 0.0
20/03:30am 13.4 8.2 10.4 82 1.6 ESE 28 39 15 21 1024.8 1024.8 0.0
20/03:00am 13.7 10.1 10.7 82 1.6 ESE 20 30 11 16 1024.9 1024.9 0.0
20/02:30am 14.0 9.0 10.8 81 1.7 ESE 28 41 15 22 1024.9 1024.9 0.0
20/02:00am 13.7 9.0 10.7 82 1.6 ESE 26 35 14 19 1025.3 1025.3 0.0
20/01:30am 13.8 9.1 10.8 82 1.6 SE 26 44 14 24 1025.4 1025.4 0.0
20/01:00am 13.7 9.1 10.9 83 1.5 SE 26 37 14 20 1025.4 1025.4 0.0
20/12:30am 13.6 8.9 10.8 83 1.5 SE 26 35 14 19 1025.4 1025.4 0.0
20/12:00am 13.8 8.8 10.8 82 1.6 SE 28 41 15 22 1025.6 1025.6 0.0
 
Date/Time
CDT
Temp
°C
App
Temp
°C
Dew
Point
Rel
Hum
%
Delta-T
°C
Wind Press
QNH
hPa
Press
MSL
hPa
Rain
since 9 am
mm
Dir
 
Spd
km/h
Gust
km/h
Spd
kts
Gust
kts
19/11:30pm 13.8 9.1 10.8 82 1.6 SE 26 39 14 21 1025.7 1025.7 0.0
19/11:00pm 13.8 8.3 10.4 80 1.8 SE 30 43 16 23 1025.8 1025.8 0.0
19/10:30pm 14.1 9.0 10.5 79 1.9 SE 28 46 15 25 1025.8 1025.8 0.0
19/10:29pm 14.1 9.0 10.5 79 1.9 SE 28 46 15 25 1025.8 1025.8 0.0
19/10:00pm 14.2 9.9 10.6 79 1.9 SE 24 35 13 19 1025.9 1025.9 0.0
19/09:30pm 14.2 8.7 10.4 78 2.0 SE 30 43 16 23 1025.7 1025.7 0.0
19/09:00pm 14.4 9.7 10.8 79 1.9 SE 26 43 14 23 1025.6 1025.6 0.0
19/08:30pm 14.7 9.3 10.9 78 2.0 SE 30 43 16 23 1025.4 1025.4 0.0
19/08:00pm 15.0 9.3 11.2 78 2.0 SE 32 46 17 25 1025.0 1025.0 0.0
19/07:30pm 15.2 9.6 11.6 79 1.9 SE 32 44 17 24 1024.5 1024.5 0.0
19/07:00pm 15.4 10.6 11.8 79 1.9 SE 28 39 15 21 1024.4 1024.4 0.0
19/06:30pm 16.1 11.4 11.9 76 2.3 SE 28 39 15 21 1024.0 1024.0 0.0
19/06:00pm 17.0 12.0 12.1 73 2.7 SE 30 39 16 21 1023.6 1023.6 0.0
19/05:30pm 16.3 10.9 12.3 77 2.2 SE 32 41 17 22 1023.6 1023.6 0.0
19/05:00pm 17.0 11.3 11.1 68 3.2 SE 32 48 17 26 1023.4 1023.4 0.0
19/04:56pm 17.6 12.4 11.6 68 3.3 SE 30 48 16 26 1023.5 1023.5 0.0
19/04:30pm 17.5 11.3 11.5 68 3.3 SSE 35 48 19 26 1023.3 1023.3 0.0
19/04:00pm 17.9 11.8 11.9 68 3.3 SSE 35 44 19 24 1023.2 1023.2 0.0
19/03:30pm 18.4 12.4 12.2 67 3.4 SSE 35 46 19 25 1023.1 1023.1 0.0
19/03:00pm 19.1 14.0 13.1 68 3.4 SSE 32 44 17 24 1022.9 1022.9 0.0
19/02:30pm 19.6 14.4 12.8 65 3.8 SE 32 44 17 24 1022.3 1022.3 0.0
19/02:00pm 20.9 16.5 14.1 65 3.9 SSE 30 41 16 22 1022.2 1022.2 0.0
19/01:30pm 20.6 16.7 14.3 67 3.7 SSE 28 35 15 19 1021.8 1021.8 0.0
19/01:00pm 20.7 17.2 14.6 68 3.6 SSE 26 33 14 18 1021.8 1021.8 0.0
19/12:30pm 22.0 18.4 14.1 61 4.6 S 26 35 14 19 1021.8 1021.8 0.0
19/12:00pm 22.3 18.2 14.9 63 4.4 SSW 30 37 16 20 1021.8 1021.8 0.0
19/11:30am 23.8 20.6 15.3 59 5.1 S 26 37 14 20 1021.4 1021.4 0.0
19/11:00am 24.0 24.0 15.2 58 5.3 S 9 22 5 12 1021.0 1021.0 0.0
19/10:30am 21.4 21.4 13.6 61 4.5 WSW 6 11 3 6 1020.8 1020.8 0.0
19/10:00am 18.0 18.4 13.7 76 2.4 S 4 7 2 4 1020.4 1020.4 0.0
19/09:31am 15.8 17.5 15.2 96 0.3 CALM 0 6 0 3 1020.0 1020.0 0.0
19/09:30am 16.0 17.8 15.4 96 0.3 CALM 0 6 0 3 1020.0 1020.0 0.0
19/09:23am 15.3 16.1 14.8 97 0.3 SW 4 7 2 4 1020.0 1020.0 0.0
19/09:00am 14.8 15.1 14.5 98 0.2 WSW 6 11 3 6 1019.9 1019.9 0.0
19/08:30am 13.7 13.1 13.4 98 0.2 WSW 9 13 5 7 1020.1 1020.1 0.0
19/08:00am 13.4 13.0 13.1 98 0.2 WNW 7 7 4 4 1019.7 1019.7 0.0
19/07:30am 12.8 12.3 12.5 98 0.2 WNW 7 9 4 5 1019.3 1019.3 0.0
19/07:00am 11.7 10.1 11.4 98 0.2 WSW 11 15 6 8 1019.2 1019.2 0.0
19/06:30am 11.7 10.8 11.4 98 0.2 WNW 7 9 4 5 1018.4 1018.4 0.0
19/06:00am 11.0 9.9 10.5 97 0.3 SW 7 9 4 5 1017.8 1017.8 0.0
19/05:30am 10.8 9.2 10.3 97 0.3 W 9 11 5 6 1017.5 1017.5 0.0
19/05:15am 11.1 10.0 10.6 97 0.3 WNW 7 9 4 5 1017.3 1017.3 0.0
19/05:14am 11.2 10.1 10.7 97 0.3 WNW 7 9 4 5 1017.3 1017.3 0.0
19/05:00am 10.8 9.6 10.3 97 0.3 W 7 9 4 5 1017.3 1017.3 0.0
19/04:43am 10.2 8.8 9.7 97 0.3 WSW 7 9 4 5 1017.1 1017.1 0.0
19/04:30am 10.2 8.8 9.7 97 0.3 WSW 7 9 4 5 1017.3 1017.3 0.0
19/04:00am 9.8 7.9 9.2 96 0.3 W 9 9 5 5 1017.6 1017.6 0.0
19/03:58am 9.8 7.9 9.2 96 0.3 W 9 9 5 5 1017.6 1017.6 0.0
19/03:30am 9.8 8.3 9.2 96 0.3 W 7 9 4 5 1017.7 1017.7 0.0
19/03:00am 10.2 8.8 9.6 96 0.3 NW 7 9 4 5 1017.8 1017.8 0.0
19/02:54am 10.1 8.7 9.5 96 0.3 NW 7 9 4 5 1017.9 1017.9 0.0
19/02:36am 10.0 8.2 9.4 96 0.3 W 9 9 5 5 1018.3 1018.3 0.0
19/02:30am 9.8 7.9 9.2 96 0.3 W 9 9 5 5 1018.3 1018.3 0.0
19/02:00am 8.1 5.7 7.2 94 0.4 W 9 9 5 5 1018.5 1018.5 0.0
19/01:30am 8.8 6.9 7.7 93 0.5 W 7 9 4 5 1018.7 1018.7 0.0
19/01:00am 10.3 9.1 9.4 94 0.4 SW 6 7 3 4 1018.9 1018.9 0.0
19/12:30am 9.6 7.5 8.2 91 0.7 SW 9 9 5 5 1019.2 1019.2 0.0
19/12:00am 10.4 8.9 9.2 92 0.6 WSW 7 9 4 5 1019.3 1019.3 0.0
 
Date/Time
CDT
Temp
°C
App
Temp
°C
Dew
Point
Rel
Hum
%
Delta-T
°C
Wind Press
QNH
hPa
Press
MSL
hPa
Rain
since 9 am
mm
Dir
 
Spd
km/h
Gust
km/h
Spd
kts
Gust
kts
18/11:30pm 10.4 8.5 9.0 91 0.7 S 9 11 5 6 1019.4 1019.4 0.0
18/11:00pm 12.4 11.5 10.6 89 0.9 WSW 6 7 3 4 1019.5 1019.5 0.0
18/10:30pm 12.9 11.9 10.3 84 1.3 WSW 6 7 3 4 1019.8 1019.8 0.0
18/10:00pm 14.3 13.4 11.3 82 1.6 SW 7 7 4 4 1020.0 1020.0 0.0
18/09:30pm 14.5 13.5 11.1 80 1.8 SSW 7 9 4 5 1019.9 1019.9 0.0
18/09:00pm 16.0 14.5 11.8 76 2.3 S 11 13 6 7 1019.9 1019.9 0.0
18/08:30pm 16.7 13.9 11.2 70 3.0 S 17 19 9 10 1019.4 1019.4 0.0
18/08:00pm 17.7 15.1 9.3 58 4.4 S 13 17 7 9 1019.1 1019.1 0.0
18/07:30pm 20.0 15.6 2.8 32 8.0 WNW 15 17 8 9 1018.5 1018.5 0.0
18/07:00pm 22.4 18.8 3.0 28 9.3 WNW 11 13 6 7 1018.5 1018.5 0.0
18/06:30pm 23.7 18.8 2.0 24 10.2 W 17 20 9 11 1018.2 1018.2 0.0
18/06:00pm 24.9 20.2 3.0 24 10.6 W 17 20 9 11 1018.1 1018.1 0.0
18/05:30pm 25.2 19.9 2.0 22 11.1 W 19 30 10 16 1017.9 1017.9 0.0
18/05:00pm 25.8 19.8 1.2 20 11.6 W 22 32 12 17 1017.9 1017.9 0.0
18/04:30pm 27.1 20.8 1.5 19 12.3 W 24 37 13 20 1017.9 1017.9 0.0
18/04:00pm 29.0 20.3 -0.2 15 13.8 WNW 35 46 19 25 1017.9 1017.9 0.0
18/03:30pm 30.6 24.2 1.0 15 14.4 WNW 24 35 13 19 1017.8 1017.8 0.0
18/03:00pm 30.0 21.3 -0.4 14 14.4 WNW 35 46 19 25 1018.1 1018.1 0.0
18/02:50pm 31.3 22.6 -0.4 13 15.2 WNW 35 54 19 29 1018.1 1018.1 0.0
18/02:48pm 31.0 21.8 -1.7 12 15.3 WNW 37 54 20 29 1017.9 1017.9 0.0
18/02:30pm 30.1 22.5 0.6 15 14.2 NW 30 48 16 26 1018.3 1018.3 0.0
18/02:29pm 29.9 22.3 0.5 15 14.1 NW 30 48 16 26 1018.3 1018.3 0.0
18/02:00pm 29.3 22.0 2.5 18 13.3 NW 30 43 16 23 1018.6 1018.6 0.0
18/01:30pm 28.9 22.3 4.4 21 12.5 NW 28 39 15 21 1018.8 1018.8 0.0
18/01:00pm 26.9 20.3 4.0 23 11.5 NNW 28 43 15 23 1018.8 1018.8 0.0
18/12:30pm 26.6 21.0 5.5 26 10.8 NNW 24 37 13 20 1019.1 1019.1 0.0
18/12:00pm 24.9 20.0 7.1 32 9.3 N 22 32 12 17 1019.3 1019.3 0.0
18/11:30am 24.9 19.7 7.1 32 9.3 N 24 39 13 21 1019.3 1019.3 0.0
18/11:00am 22.7 18.4 8.0 39 7.7 N 20 32 11 17 1019.4 1019.4 0.0
18/10:30am 23.4 17.1 5.8 32 8.9 N 28 41 15 22 1019.3 1019.3 0.0
18/10:00am 24.2 19.5 6.0 31 9.3 N 20 33 11 18 1019.8 1019.8 0.0
18/09:30am 22.4 18.3 6.2 35 8.2 N 17 20 9 11 1019.9 1019.9 0.0
18/09:00am 21.0 16.6 6.5 39 7.3 N 19 26 10 14 1020.0 1020.0 0.0
18/08:30am 20.5 18.1 6.8 41 6.9 N 9 19 5 10 1020.1 1020.1 0.0
18/08:00am 17.8 15.7 9.7 59 4.3 NNE 11 15 6 8 1019.9 1019.9 0.0
18/07:30am 16.9 14.1 10.1 64 3.6 NNE 15 19 8 10 1019.5 1019.5 0.0
18/07:00am 16.0 13.4 9.2 64 3.5 NNE 13 17 7 9 1019.5 1019.5 0.0
18/06:30am 16.3 13.9 8.5 60 4.0 NNE 11 15 6 8 1019.4 1019.4 0.0
18/06:00am 16.1 14.4 8.3 60 3.9 N 7 11 4 6 1019.0 1019.0 0.0
18/05:30am 14.6 12.9 8.5 67 3.1 N 7 13 4 7 1018.7 1018.7 0.0
18/05:00am 11.3 9.2 8.2 81 1.5 SSW 9 11 5 6 1018.4 1018.4 0.0
18/04:42am 11.9 9.6 5.5 65 3.0 WNW 7 11 4 6 1018.6 1018.6 0.0
18/04:30am 17.2 13.4 8.9 58 4.3 N 19 26 10 14 1018.4 1018.4 0.0
18/04:00am 15.0 13.2 10.8 76 2.2 NE 11 19 6 10 1018.7 1018.7 0.0
18/03:30am 10.8 9.1 9.7 93 0.6 E 9 13 5 7 1019.1 1019.1 0.0
18/03:00am 6.9 5.1 5.5 91 0.6 ENE 4 11 2 6 1019.2 1019.2 0.0
18/02:30am 6.8 4.1 5.7 93 0.5 S 9 11 5 6 1019.4 1019.4 0.0
18/02:00am 6.9 4.8 5.8 93 0.5 SSW 6 7 3 4 1019.6 1019.6 0.0
18/01:30am 7.5 6.7 6.4 93 0.5 CALM 0 7 0 4 1020.0 1020.0 0.0
18/01:00am 7.3 5.1 6.1 92 0.5 SSW 7 9 4 5 1020.3 1020.3 0.0
18/12:52am 7.8 6.6 6.6 92 0.6 SSW 2 9 1 5 1020.2 1020.2 0.0
18/12:30am 8.0 6.5 6.9 93 0.5 NW 4 7 2 4 1020.2 1020.2 0.0
18/12:00am 7.6 5.4 6.2 91 0.6 W 7 7 4 4 1020.3 1020.3 0.0
 
Date/Time
CDT
Temp
°C
App
Temp
°C
Dew
Point
Rel
Hum
%
Delta-T
°C
Wind Press
QNH
hPa
Press
MSL
hPa
Rain
since 9 am
mm
Dir
 
Spd
km/h
Gust
km/h
Spd
kts
Gust
kts
17/11:54pm 7.7 5.5 6.2 90 0.7 W 7 9 4 5 1020.3 1020.3 0.0
17/11:30pm 8.9 8.3 7.4 90 0.7 CALM 0 0 0 0 1020.3 1020.3 0.0
17/11:00pm 9.2 8.6 7.6 90 0.8 CALM 0 0 0 0 1020.7 1020.7 0.0
17/10:30pm 10.0 9.5 7.9 87 1.0 CALM 0 0 0 0 1020.8 1020.8 0.0
17/10:00pm 12.7 11.4 10.1 84 1.3 N 7 9 4 5 1020.9 1020.9 0.0

Other Formats:

Comma delimited format used in spreadsheet applications
http://www.bom.gov.au/fwo/IDS60801/IDS60801.95807.axf

JavaScript Object Notation format (JSON) in row-major order
http://www.bom.gov.au/fwo/IDS60801/IDS60801.95807.json